Time;durP1;ratioP1;P1;durP2;ratioP2;P2;SDS_P1;SDS_P2;PMS_P1;PMS_P2;Temp;Humidity;BMP_temperature;BMP_pressure;BME280_temperature;BME280_humidity;BME280_pressure;Samples;Min_cycle;Max_cycle;Signal;HPM_P1;HPM_P2
2023/10/05 00:01:44;;;;;;;;;;;8.50;99.90;;;;;;5114971;28;19920;-75
2023/10/05 00:04:15;;;;;;;;;;;8.50;99.90;;;;;;5106595;28;19942;-74
2023/10/05 00:06:44;;;;;;;;;;;8.40;99.90;;;;;;5113226;28;20186;-75
2023/10/05 00:09:15;;;;;;;;;;;8.40;99.90;;;;;;5117090;28;19924;-75
2023/10/05 00:11:42;;;;;;;;;;;8.30;99.90;;;;;;5110621;28;19979;-74
2023/10/05 00:14:10;;;;;;;;;;;8.40;99.90;;;;;;5117381;28;19951;-75
2023/10/05 00:16:37;;;;;;;;;;;8.30;99.90;;;;;;5111748;28;20206;-75
2023/10/05 00:19:05;;;;;;;;;;;8.30;99.90;;;;;;5110849;28;19924;-75
2023/10/05 00:21:35;;;;;;;;;;;8.20;99.90;;;;;;5113926;28;19942;-75
2023/10/05 00:24:04;;;;;;;;;;;8.20;99.90;;;;;;5116453;28;19920;-76
2023/10/05 00:26:32;;;;;;;;;;;8.20;99.90;;;;;;5114768;28;20213;-74
2023/10/05 00:29:05;;;;;;;;;;;8.20;99.90;;;;;;5116268;28;20144;-74
2023/10/05 00:31:38;;;;;;;;;;;8.10;99.90;;;;;;5114786;28;19934;-75
2023/10/05 00:34:08;;;;;;;;;;;8.10;99.90;;;;;;5116917;28;19926;-74
2023/10/05 00:36:39;;;;;;;;;;;8.00;99.90;;;;;;5116584;28;19932;-74
2023/10/05 00:39:08;;;;;;;;;;;8.10;99.90;;;;;;5105052;28;19924;-74
2023/10/05 00:41:35;;;;;;;;;;;8.00;99.90;;;;;;5113680;28;19920;-74
2023/10/05 00:44:02;;;;;;;;;;;8.00;99.90;;;;;;5108221;28;19927;-74
2023/10/05 00:46:32;;;;;;;;;;;8.00;99.90;;;;;;5108319;28;19988;-74
2023/10/05 00:49:13;;;;;;;;;;;8.00;99.90;;;;;;5110287;28;19962;-74
2023/10/05 00:51:46;;;;;;;;;;;7.90;99.90;;;;;;5113459;28;19920;-74
2023/10/05 00:54:18;;;;;;;;;;;7.90;99.90;;;;;;5117058;28;19919;-74
2023/10/05 00:56:46;;;;;;;;;;;7.90;99.90;;;;;;5110689;28;19974;-74
2023/10/05 00:59:20;;;;;;;;;;;7.80;99.90;;;;;;5117300;28;20223;-74
2023/10/05 01:04:56;;;;;;;;;;;7.80;99.90;;;;;;5180363;27;19942;-74
2023/10/05 01:10:29;;;;;;;;;;;7.80;99.90;;;;;;5158072;27;20252;-74
2023/10/05 01:12:56;;;;;;;;;;;7.80;99.90;;;;;;5161643;27;19942;-74
2023/10/05 01:15:30;;;;;;;;;;;7.80;99.90;;;;;;5162261;27;19982;-74
2023/10/05 01:17:57;;;;;;;;;;;7.70;99.90;;;;;;5154889;27;20331;-74
2023/10/05 01:20:27;;;;;;;;;;;7.80;99.90;;;;;;5154869;27;19919;-74
2023/10/05 01:22:57;;;;;;;;;;;7.70;99.90;;;;;;5157620;27;19923;-74
2023/10/05 01:25:27;;;;;;;;;;;7.70;99.90;;;;;;5162130;27;19926;-75
2023/10/05 01:27:54;;;;;;;;;;;7.70;99.90;;;;;;5162641;27;19919;-74
2023/10/05 01:30:21;;;;;;;;;;;7.70;99.90;;;;;;5162355;27;20208;-74
2023/10/05 01:32:49;;;;;;;;;;;7.70;99.90;;;;;;5162621;27;20120;-74
2023/10/05 01:35:18;;;;;;;;;;;7.60;99.90;;;;;;5161608;27;19919;-74
2023/10/05 01:37:46;;;;;;;;;;;7.60;99.90;;;;;;5159295;27;19919;-74
2023/10/05 01:40:14;;;;;;;;;;;7.60;99.90;;;;;;5162383;27;20003;-74
2023/10/05 01:42:44;;;;;;;;;;;7.60;99.90;;;;;;5162420;27;19919;-74
2023/10/05 01:45:15;;;;;;;;;;;7.50;99.90;;;;;;5162540;27;19920;-74
2023/10/05 01:47:43;;;;;;;;;;;7.60;99.90;;;;;;5158894;27;19919;-74
2023/10/05 01:50:18;;;;;;;;;;;7.60;99.90;;;;;;5161223;27;19920;-75
2023/10/05 01:52:46;;;;;;;;;;;7.60;99.90;;;;;;5151666;27;19920;-74
2023/10/05 01:55:14;;;;;;;;;;;7.60;99.90;;;;;;5154736;27;19951;-74
2023/10/05 01:57:42;;;;;;;;;;;7.60;99.90;;;;;;5151824;27;19960;-74
2023/10/05 02:00:19;;;;;;;;;;;7.60;99.90;;;;;;5158454;27;20208;-76
2023/10/05 02:02:48;;;;;;;;;;;7.60;99.90;;;;;;5159088;27;19919;-76
2023/10/05 02:05:15;;;;;;;;;;;7.60;99.90;;;;;;5161158;27;20124;-76
2023/10/05 02:07:42;;;;;;;;;;;7.60;99.90;;;;;;5161913;27;19961;-73
2023/10/05 02:10:13;;;;;;;;;;;7.60;99.90;;;;;;5161872;27;19923;-74
2023/10/05 02:12:39;;;;;;;;;;;7.50;99.90;;;;;;5161714;27;19954;-74
2023/10/05 02:15:12;;;;;;;;;;;7.50;99.90;;;;;;5147783;27;19922;-74
2023/10/05 02:17:45;;;;;;;;;;;7.50;99.90;;;;;;5136336;27;19941;-74
2023/10/05 02:20:27;;;;;;;;;;;7.50;99.90;;;;;;5144128;27;19961;-74
2023/10/05 02:22:54;;;;;;;;;;;7.50;99.90;;;;;;5139446;27;19926;-75
2023/10/05 02:25:25;;;;;;;;;;;7.50;99.90;;;;;;5143686;27;19919;-75
2023/10/05 02:27:52;;;;;;;;;;;7.50;99.90;;;;;;5147615;27;19923;-74
2023/10/05 02:30:27;;;;;;;;;;;7.50;99.90;;;;;;5147625;27;19960;-75
2023/10/05 02:32:58;;;;;;;;;;;7.50;99.90;;;;;;5147512;27;19919;-75
2023/10/05 02:35:29;;;;;;;;;;;7.50;99.90;;;;;;5146897;27;19919;-74
2023/10/05 02:37:58;;;;;;;;;;;7.50;99.90;;;;;;5147685;27;20094;-75
2023/10/05 02:40:26;;;;;;;;;;;7.40;99.90;;;;;;5147280;27;19926;-75
2023/10/05 02:42:54;;;;;;;;;;;7.40;99.90;;;;;;5147473;27;19925;-74
2023/10/05 02:45:21;;;;;;;;;;;7.40;99.90;;;;;;5146793;27;20093;-74
2023/10/05 02:47:49;;;;;;;;;;;7.40;99.90;;;;;;5147096;27;19919;-74
2023/10/05 02:50:18;;;;;;;;;;;7.40;99.90;;;;;;5146694;27;20251;-74
2023/10/05 02:52:46;;;;;;;;;;;7.40;99.90;;;;;;5144455;27;19921;-74
2023/10/05 02:55:14;;;;;;;;;;;7.40;99.90;;;;;;5146702;27;19982;-74
2023/10/05 02:57:43;;;;;;;;;;;7.40;99.90;;;;;;5147203;27;20143;-76
2023/10/05 03:00:12;;;;;;;;;;;7.40;99.90;;;;;;5147192;27;20086;-74
2023/10/05 03:02:45;;;;;;;;;;;7.40;99.90;;;;;;5147123;27;19990;-74
2023/10/05 03:05:12;;;;;;;;;;;7.40;99.90;;;;;;5142296;27;19978;-74
2023/10/05 03:07:41;;;;;;;;;;;7.40;99.90;;;;;;5146705;27;19974;-74
2023/10/05 03:10:13;;;;;;;;;;;7.40;99.90;;;;;;5146807;27;19982;-75
2023/10/05 03:12:40;;;;;;;;;;;7.30;99.90;;;;;;5146673;27;19919;-75
2023/10/05 03:15:08;;;;;;;;;;;7.30;99.90;;;;;;5141510;27;19987;-74
2023/10/05 03:17:36;;;;;;;;;;;7.30;99.90;;;;;;5138559;27;20124;-74
2023/10/05 03:20:08;;;;;;;;;;;7.30;99.90;;;;;;5139428;27;19979;-75
2023/10/05 03:22:35;;;;;;;;;;;7.30;99.90;;;;;;5137416;27;19919;-74
2023/10/05 03:25:04;;;;;;;;;;;7.30;99.90;;;;;;5139080;27;19973;-74
2023/10/05 03:27:31;;;;;;;;;;;7.30;99.90;;;;;;5140230;27;19987;-74
2023/10/05 03:30:03;;;;;;;;;;;7.30;99.90;;;;;;5146410;27;19961;-75
2023/10/05 03:32:30;;;;;;;;;;;7.40;99.90;;;;;;5146505;27;19976;-74
2023/10/05 03:34:58;;;;;;;;;;;7.30;99.90;;;;;;5145852;27;19919;-75
2023/10/05 03:37:24;;;;;;;;;;;7.30;99.90;;;;;;5145570;27;19956;-74
2023/10/05 03:39:53;;;;;;;;;;;7.30;99.90;;;;;;5146160;27;19919;-74
2023/10/05 03:42:22;;;;;;;;;;;7.30;99.90;;;;;;5146306;27;20090;-73
2023/10/05 03:44:54;;;;;;;;;;;7.30;99.90;;;;;;5145866;27;19928;-75
2023/10/05 03:47:20;;;;;;;;;;;7.30;99.90;;;;;;5145523;27;19964;-74
2023/10/05 03:49:55;;;;;;;;;;;7.30;99.90;;;;;;5145929;27;19955;-74
2023/10/05 03:52:22;;;;;;;;;;;7.30;99.90;;;;;;5131354;27;19974;-75
2023/10/05 03:54:49;;;;;;;;;;;7.30;99.90;;;;;;5134496;27;19946;-75
2023/10/05 03:57:16;;;;;;;;;;;7.20;99.90;;;;;;5131790;27;20118;-74
2023/10/05 03:59:44;;;;;;;;;;;7.30;99.90;;;;;;5137185;27;20232;-75
2023/10/05 04:02:11;;;;;;;;;;;7.30;99.90;;;;;;5145826;27;19955;-74
2023/10/05 04:04:42;;;;;;;;;;;7.30;99.90;;;;;;5145571;27;20090;-74
2023/10/05 04:07:09;;;;;;;;;;;7.30;99.90;;;;;;5140603;27;19919;-74
2023/10/05 04:09:36;;;;;;;;;;;7.30;99.90;;;;;;5145413;27;19919;-74
2023/10/05 04:12:04;;;;;;;;;;;7.20;99.90;;;;;;5145352;27;20205;-74
2023/10/05 04:14:33;;;;;;;;;;;7.20;99.90;;;;;;5145076;27;19920;-74
2023/10/05 04:17:07;;;;;;;;;;;7.20;99.90;;;;;;5140707;27;19919;-74
2023/10/05 04:19:34;;;;;;;;;;;7.20;99.90;;;;;;5136167;27;19951;-74
2023/10/05 04:22:01;;;;;;;;;;;7.30;99.90;;;;;;5138077;27;19958;-74
2023/10/05 04:24:27;;;;;;;;;;;7.30;99.90;;;;;;5145363;27;19926;-74
2023/10/05 04:26:54;;;;;;;;;;;7.30;99.90;;;;;;5145038;27;19919;-74
2023/10/05 04:29:22;;;;;;;;;;;7.20;99.90;;;;;;5145311;27;19979;-75
2023/10/05 04:31:49;;;;;;;;;;;7.20;99.90;;;;;;5145042;27;20209;-74
2023/10/05 04:34:19;;;;;;;;;;;7.20;99.90;;;;;;5145180;27;19920;-74
2023/10/05 04:36:48;;;;;;;;;;;7.20;99.90;;;;;;5133916;27;20176;-75
2023/10/05 04:39:21;;;;;;;;;;;7.20;99.90;;;;;;5144613;27;19941;-74
2023/10/05 04:41:49;;;;;;;;;;;7.20;99.90;;;;;;5142375;27;19919;-74
2023/10/05 04:44:16;;;;;;;;;;;7.30;99.90;;;;;;5145000;27;19944;-75
2023/10/05 04:46:47;;;;;;;;;;;7.30;99.90;;;;;;5140981;27;20116;-75
2023/10/05 04:49:14;;;;;;;;;;;7.30;99.90;;;;;;5145039;27;20143;-72
2023/10/05 04:51:43;;;;;;;;;;;7.30;99.90;;;;;;5145018;27;19919;-72
2023/10/05 04:54:11;;;;;;;;;;;7.30;99.90;;;;;;5144431;27;20217;-72
2023/10/05 04:56:43;;;;;;;;;;;7.30;99.90;;;;;;5144235;27;20180;-72
2023/10/05 04:59:24;;;;;;;;;;;7.30;99.90;;;;;;5136802;27;19920;-72
2023/10/05 05:02:12;;;;;;;;;;;7.30;99.90;;;;;;5142785;28;20239;-72
2023/10/05 05:04:52;;;;;;;;;;;7.30;99.90;;;;;;5144606;28;19920;-72
2023/10/05 05:07:21;;;;;;;;;;;7.40;99.90;;;;;;5141279;28;19926;-72
2023/10/05 05:09:50;;;;;;;;;;;7.30;99.90;;;;;;5144740;28;19925;-72
2023/10/05 05:12:17;;;;;;;;;;;7.40;99.90;;;;;;5144981;28;19942;-71
2023/10/05 05:14:44;;;;;;;;;;;7.30;99.90;;;;;;5144688;28;20044;-72
2023/10/05 05:17:13;;;;;;;;;;;7.30;99.90;;;;;;5140735;28;19919;-72
2023/10/05 05:19:40;;;;;;;;;;;7.40;99.90;;;;;;5137738;27;19919;-73
2023/10/05 05:22:08;;;;;;;;;;;7.40;99.90;;;;;;5130833;28;19951;-72
2023/10/05 05:24:36;;;;;;;;;;;7.40;99.90;;;;;;5138102;28;19926;-73
2023/10/05 05:27:04;;;;;;;;;;;7.40;99.90;;;;;;5144053;28;19919;-72
2023/10/05 05:29:32;;;;;;;;;;;7.40;99.90;;;;;;5144416;28;19923;-73
2023/10/05 05:32:02;;;;;;;;;;;7.40;99.90;;;;;;5144637;28;19947;-72
2023/10/05 05:34:29;;;;;;;;;;;7.50;99.90;;;;;;5144103;28;19923;-70
2023/10/05 05:36:55;;;;;;;;;;;7.50;99.90;;;;;;5144201;28;19999;-72
2023/10/05 05:39:25;;;;;;;;;;;7.50;99.90;;;;;;5143683;28;20094;-72
2023/10/05 05:41:59;;;;;;;;;;;7.60;99.90;;;;;;5134045;28;19947;-73
2023/10/05 05:44:28;;;;;;;;;;;7.60;99.90;;;;;;5140169;28;19920;-73
2023/10/05 05:46:59;;;;;;;;;;;7.60;99.90;;;;;;5137133;28;19919;-72
2023/10/05 05:49:26;;;;;;;;;;;7.60;99.90;;;;;;5144610;27;19926;-74
2023/10/05 05:51:53;;;;;;;;;;;7.70;99.90;;;;;;5148386;27;19919;-73
2023/10/05 05:54:20;;;;;;;;;;;7.70;99.90;;;;;;5148045;27;20209;-74
2023/10/05 05:56:47;;;;;;;;;;;7.70;99.90;;;;;;5147765;27;19926;-74
2023/10/05 05:59:15;;;;;;;;;;;7.70;99.90;;;;;;5148280;27;20020;-73
2023/10/05 06:01:42;;;;;;;;;;;7.70;99.90;;;;;;5148269;27;19926;-73
2023/10/05 06:04:09;;;;;;;;;;;7.70;99.90;;;;;;5147674;27;20193;-74
2023/10/05 06:06:37;;;;;;;;;;;7.80;99.90;;;;;;5147203;27;20117;-73
2023/10/05 06:09:07;;;;;;;;;;;7.80;99.90;;;;;;5147923;27;19947;-73
2023/10/05 06:11:34;;;;;;;;;;;7.80;99.90;;;;;;5147928;27;19919;-73
2023/10/05 06:14:01;;;;;;;;;;;7.80;99.90;;;;;;5147579;27;20221;-74
2023/10/05 06:16:31;;;;;;;;;;;7.80;99.90;;;;;;5146977;27;19983;-73
2023/10/05 06:18:58;;;;;;;;;;;7.80;99.90;;;;;;5147501;27;20101;-74
2023/10/05 06:21:25;;;;;;;;;;;7.90;99.90;;;;;;5147838;27;19919;-74
2023/10/05 06:23:51;;;;;;;;;;;7.90;99.90;;;;;;5147442;27;19982;-73
2023/10/05 06:26:18;;;;;;;;;;;8.00;99.90;;;;;;5148768;27;19950;-73
2023/10/05 06:28:45;;;;;;;;;;;8.00;99.90;;;;;;5152244;27;19920;-75
2023/10/05 06:31:12;;;;;;;;;;;8.00;99.90;;;;;;5153441;27;19955;-73
2023/10/05 06:33:42;;;;;;;;;;;8.10;99.90;;;;;;5147476;27;19962;-73
2023/10/05 06:36:09;;;;;;;;;;;8.10;99.90;;;;;;5142801;27;19926;-73
2023/10/05 06:38:36;;;;;;;;;;;8.20;99.90;;;;;;5146457;27;20213;-73
2023/10/05 06:41:03;;;;;;;;;;;8.20;99.90;;;;;;5147172;27;19919;-73
2023/10/05 06:43:35;;;;;;;;;;;8.30;99.90;;;;;;5145547;27;19965;-73
2023/10/05 06:46:09;;;;;;;;;;;8.30;99.90;;;;;;5146567;27;19927;-73
2023/10/05 06:48:36;;;;;;;;;;;8.30;99.90;;;;;;5146984;27;19969;-73
2023/10/05 06:51:04;;;;;;;;;;;8.40;99.90;;;;;;5147268;27;19924;-73
2023/10/05 06:53:31;;;;;;;;;;;8.50;99.90;;;;;;5146895;27;20206;-73
2023/10/05 06:55:58;;;;;;;;;;;8.50;99.90;;;;;;5146214;27;19955;-73
2023/10/05 06:58:25;;;;;;;;;;;8.70;99.90;;;;;;5146973;27;19919;-73
2023/10/05 07:00:52;;;;;;;;;;;8.70;99.90;;;;;;5146958;27;20134;-73
2023/10/05 07:03:20;;;;;;;;;;;8.80;99.90;;;;;;5146745;27;19920;-73
2023/10/05 07:05:47;;;;;;;;;;;8.90;99.90;;;;;;5145975;27;19919;-73
2023/10/05 07:08:15;;;;;;;;;;;8.90;99.90;;;;;;5146901;27;19986;-73
2023/10/05 07:10:42;;;;;;;;;;;9.00;99.90;;;;;;5146979;27;19926;-73
2023/10/05 07:13:09;;;;;;;;;;;9.00;99.90;;;;;;5146868;27;19919;-73
2023/10/05 07:15:36;;;;;;;;;;;9.10;99.90;;;;;;5146099;27;19945;-73
2023/10/05 07:18:03;;;;;;;;;;;9.20;99.90;;;;;;5146439;27;19953;-73
2023/10/05 07:20:30;;;;;;;;;;;9.30;99.90;;;;;;5146303;27;19927;-73
2023/10/05 07:22:56;;;;;;;;;;;9.30;99.90;;;;;;5146664;27;19991;-73
2023/10/05 07:25:24;;;;;;;;;;;9.40;99.90;;;;;;5145416;27;19961;-73
2023/10/05 07:27:52;;;;;;;;;;;9.40;99.90;;;;;;5146486;27;19986;-73
2023/10/05 07:30:19;;;;;;;;;;;9.50;99.90;;;;;;5146144;27;20333;-73
2023/10/05 07:32:46;;;;;;;;;;;9.50;99.90;;;;;;5146136;27;19919;-74
2023/10/05 07:35:13;;;;;;;;;;;9.60;99.90;;;;;;5146241;27;19978;-73
2023/10/05 07:37:39;;;;;;;;;;;9.60;99.90;;;;;;5136890;27;19983;-73
2023/10/05 07:40:08;;;;;;;;;;;9.70;99.90;;;;;;5137567;27;19955;-73
2023/10/05 07:42:37;;;;;;;;;;;9.70;99.90;;;;;;5136012;27;19926;-74
2023/10/05 07:45:07;;;;;;;;;;;9.90;99.90;;;;;;5134809;27;19919;-74
2023/10/05 07:47:33;;;;;;;;;;;10.00;99.90;;;;;;5145462;27;19924;-74
2023/10/05 07:50:00;;;;;;;;;;;10.10;99.90;;;;;;5146072;27;19960;-74
2023/10/05 07:52:27;;;;;;;;;;;10.20;99.90;;;;;;5146045;27;19919;-73
2023/10/05 07:54:53;;;;;;;;;;;10.30;99.90;;;;;;5145784;27;19981;-73
2023/10/05 07:57:20;;;;;;;;;;;10.40;99.90;;;;;;5145624;27;19986;-73
2023/10/05 07:59:48;;;;;;;;;;;10.50;99.90;;;;;;5145844;27;19950;-73
2023/10/05 08:02:15;;;;;;;;;;;10.60;99.90;;;;;;5145869;27;19919;-74
2023/10/05 08:04:43;;;;;;;;;;;10.60;99.90;;;;;;5145106;27;19990;-74
2023/10/05 08:07:11;;;;;;;;;;;10.80;99.90;;;;;;5145459;27;19919;-74
2023/10/05 08:09:37;;;;;;;;;;;10.90;99.90;;;;;;5145384;27;19963;-73
2023/10/05 08:12:04;;;;;;;;;;;11.00;99.90;;;;;;5145004;27;19925;-73
2023/10/05 08:14:31;;;;;;;;;;;11.10;99.90;;;;;;5145133;27;19961;-74
2023/10/05 08:16:59;;;;;;;;;;;11.20;99.90;;;;;;5144957;27;19926;-73
2023/10/05 08:19:26;;;;;;;;;;;11.20;99.90;;;;;;5145580;27;19919;-73
2023/10/05 08:21:53;;;;;;;;;;;11.30;99.90;;;;;;5145488;27;19926;-73
2023/10/05 08:24:20;;;;;;;;;;;11.30;99.90;;;;;;5145432;27;19926;-73
2023/10/05 08:26:48;;;;;;;;;;;11.40;99.90;;;;;;5144543;27;19985;-73
2023/10/05 08:29:17;;;;;;;;;;;11.50;99.90;;;;;;5145377;27;20158;-73
2023/10/05 08:31:44;;;;;;;;;;;11.50;99.90;;;;;;5142237;27;19919;-73
2023/10/05 08:34:17;;;;;;;;;;;11.60;99.90;;;;;;5145284;27;19920;-73
2023/10/05 08:36:44;;;;;;;;;;;11.70;99.90;;;;;;5137970;27;19920;-73
2023/10/05 08:39:13;;;;;;;;;;;11.90;99.90;;;;;;5138365;27;20220;-73
2023/10/05 08:41:41;;;;;;;;;;;11.90;99.90;;;;;;5135237;27;19920;-73
2023/10/05 08:44:10;;;;;;;;;;;12.10;99.90;;;;;;5133397;27;19926;-73
2023/10/05 08:46:41;;;;;;;;;;;12.10;99.90;;;;;;5144220;27;20187;-73
2023/10/05 08:49:10;;;;;;;;;;;12.30;99.90;;;;;;5140013;27;19920;-73
2023/10/05 08:51:40;;;;;;;;;;;12.30;99.90;;;;;;5145190;27;19923;-73
2023/10/05 08:54:09;;;;;;;;;;;12.40;99.90;;;;;;5139772;27;19919;-73
2023/10/05 08:56:40;;;;;;;;;;;12.60;99.90;;;;;;5144356;27;19928;-73
2023/10/05 08:59:13;;;;;;;;;;;12.60;99.90;;;;;;5139738;27;19923;-73
2023/10/05 09:01:42;;;;;;;;;;;12.70;99.90;;;;;;5144806;27;20212;-73
2023/10/05 09:04:23;;;;;;;;;;;12.80;99.90;;;;;;5139857;28;19919;-73
2023/10/05 09:06:55;;;;;;;;;;;12.80;99.90;;;;;;5142189;28;19923;-73
2023/10/05 09:09:28;;;;;;;;;;;12.90;99.90;;;;;;5144913;28;19943;-73
2023/10/05 09:11:56;;;;;;;;;;;13.00;99.90;;;;;;5144862;28;19941;-73
2023/10/05 09:14:27;;;;;;;;;;;13.10;99.90;;;;;;5144851;28;19955;-73
2023/10/05 09:17:07;;;;;;;;;;;13.10;99.90;;;;;;5144493;28;19926;-73
2023/10/05 09:19:34;;;;;;;;;;;13.20;99.90;;;;;;5144764;28;19920;-73
2023/10/05 09:22:12;;;;;;;;;;;13.30;99.90;;;;;;5144763;28;19976;-73
2023/10/05 09:24:42;;;;;;;;;;;13.30;99.90;;;;;;5145465;27;19919;-73
2023/10/05 09:27:14;;;;;;;;;;;13.40;99.90;;;;;;5148181;27;20232;-73
2023/10/05 09:29:41;;;;;;;;;;;13.50;99.90;;;;;;5148606;27;19985;-72
2023/10/05 09:32:11;;;;;;;;;;;13.60;99.90;;;;;;5148649;27;20224;-73
2023/10/05 09:34:43;;;;;;;;;;;13.70;99.90;;;;;;5148519;27;19927;-72
2023/10/05 09:37:13;;;;;;;;;;;13.80;99.90;;;;;;5138532;27;19942;-73
2023/10/05 09:39:43;;;;;;;;;;;13.80;99.90;;;;;;5148621;27;19919;-72
2023/10/05 09:42:16;;;;;;;;;;;13.80;99.90;;;;;;5144186;27;19919;-72
2023/10/05 09:44:50;;;;;;;;;;;13.90;99.90;;;;;;5144008;27;19924;-72
2023/10/05 09:47:18;;;;;;;;;;;13.90;99.90;;;;;;5148186;27;19920;-73
2023/10/05 09:49:46;;;;;;;;;;;13.90;99.90;;;;;;5148391;27;19982;-72
2023/10/05 09:52:15;;;;;;;;;;;13.90;99.90;;;;;;5148562;27;19926;-72
2023/10/05 09:54:43;;;;;;;;;;;13.90;99.90;;;;;;5148228;27;19924;-72
2023/10/05 09:57:11;;;;;;;;;;;13.90;99.90;;;;;;5148003;27;19982;-72
2023/10/05 09:59:41;;;;;;;;;;;14.00;99.90;;;;;;5148242;27;19990;-73
2023/10/05 10:02:12;;;;;;;;;;;14.10;99.90;;;;;;5143394;27;19960;-73
2023/10/05 10:04:40;;;;;;;;;;;14.10;99.90;;;;;;5147311;27;19919;-73
2023/10/05 10:07:15;;;;;;;;;;;14.20;99.90;;;;;;5142326;27;20240;-73
2023/10/05 10:09:46;;;;;;;;;;;14.40;99.90;;;;;;5148042;27;19919;-74
2023/10/05 10:12:25;;;;;;;;;;;14.50;99.90;;;;;;5148149;27;19982;-73
2023/10/05 10:14:52;;;;;;;;;;;14.60;99.90;;;;;;5145544;27;19956;-73
2023/10/05 10:17:27;;;;;;;;;;;14.80;99.90;;;;;;5147588;27;19925;-73
2023/10/05 10:20:06;;;;;;;;;;;14.80;99.90;;;;;;5147987;27;19926;-73
2023/10/05 10:22:46;;;;;;;;;;;14.80;99.90;;;;;;5147892;27;19923;-73
2023/10/05 10:28:16;;;;;;;;;;;14.90;99.90;;;;;;5135838;27;19939;-74
2023/10/05 10:30:46;;;;;;;;;;;15.10;99.90;;;;;;5128940;28;19943;-74
2023/10/05 10:33:24;;;;;;;;;;;15.30;99.90;;;;;;5134404;27;19984;-74
2023/10/05 10:35:51;;;;;;;;;;;15.40;99.90;;;;;;5131198;28;19947;-73
2023/10/05 10:38:18;;;;;;;;;;;15.40;99.90;;;;;;5121249;28;20201;-74
2023/10/05 10:40:53;;;;;;;;;;;15.50;99.90;;;;;;5121718;28;19958;-73
2023/10/05 10:43:30;;;;;;;;;;;15.50;99.90;;;;;;5120802;28;19928;-73
2023/10/05 10:45:59;;;;;;;;;;;15.50;99.90;;;;;;5128076;28;20326;-73
2023/10/05 10:48:29;;;;;;;;;;;15.40;99.90;;;;;;5134053;27;19947;-74
2023/10/05 10:50:59;;;;;;;;;;;15.30;99.90;;;;;;5133927;28;20224;-73
2023/10/05 10:53:30;;;;;;;;;;;15.30;99.90;;;;;;5133910;27;20094;-73
2023/10/05 10:56:03;;;;;;;;;;;15.40;99.90;;;;;;5129093;28;19926;-73
2023/10/05 10:58:34;;;;;;;;;;;15.50;99.90;;;;;;5129804;28;20152;-73
2023/10/05 11:01:03;;;;;;;;;;;15.60;99.90;;;;;;5128249;27;19920;-73
2023/10/05 11:03:30;;;;;;;;;;;15.70;99.90;;;;;;5133247;27;19926;-73
2023/10/05 11:05:58;;;;;;;;;;;15.80;99.90;;;;;;5133128;28;19916;-73
2023/10/05 11:08:25;;;;;;;;;;;15.80;99.90;;;;;;5133851;27;19951;-74
2023/10/05 11:11:00;;;;;;;;;;;15.80;99.90;;;;;;5132520;28;19973;-72
2023/10/05 11:13:27;;;;;;;;;;;15.80;99.90;;;;;;5133477;27;19924;-73
2023/10/05 11:15:59;;;;;;;;;;;15.80;99.90;;;;;;5132440;28;19949;-73
2023/10/05 11:18:27;;;;;;;;;;;15.70;99.90;;;;;;5133129;27;19919;-73
2023/10/05 11:20:53;;;;;;;;;;;15.70;99.90;;;;;;5132630;28;19920;-73
2023/10/05 11:23:25;;;;;;;;;;;15.60;99.90;;;;;;5134148;27;19955;-73
2023/10/05 11:26:03;;;;;;;;;;;15.60;99.90;;;;;;5131507;28;20160;-73
2023/10/05 11:28:30;;;;;;;;;;;15.60;99.90;;;;;;5132551;27;19927;-73
2023/10/05 11:30:59;;;;;;;;;;;15.60;99.90;;;;;;5132961;28;19942;-73
2023/10/05 11:33:33;;;;;;;;;;;15.70;99.90;;;;;;5126625;27;19983;-73
2023/10/05 11:36:17;;;;;;;;;;;15.60;99.90;;;;;;5127514;27;19957;-73
2023/10/05 11:38:43;;;;;;;;;;;15.60;99.90;;;;;;5107671;28;19924;-73
2023/10/05 11:41:16;;;;;;;;;;;15.50;99.90;;;;;;5106679;28;19963;-74
2023/10/05 11:43:43;;;;;;;;;;;15.50;99.90;;;;;;5102734;28;20150;-73
2023/10/05 11:46:17;;;;;;;;;;;15.50;99.90;;;;;;5110202;28;19926;-73
2023/10/05 11:48:48;;;;;;;;;;;15.50;99.90;;;;;;5116734;28;20113;-73
2023/10/05 11:51:19;;;;;;;;;;;15.50;99.90;;;;;;5113668;28;19920;-73
2023/10/05 11:53:46;;;;;;;;;;;15.50;99.90;;;;;;5114640;28;20136;-73
2023/10/05 11:56:15;;;;;;;;;;;15.50;99.90;;;;;;5119792;28;19955;-74
2023/10/05 11:58:42;;;;;;;;;;;15.50;99.90;;;;;;5117076;28;19961;-74
2023/10/05 12:01:09;;;;;;;;;;;15.60;99.90;;;;;;5113444;28;19920;-73
2023/10/05 12:03:43;;;;;;;;;;;15.60;99.90;;;;;;5113210;28;19956;-74
2023/10/05 12:06:11;;;;;;;;;;;15.60;99.90;;;;;;5099749;28;19920;-74
2023/10/05 12:08:37;;;;;;;;;;;15.50;99.90;;;;;;5106256;28;20011;-73
2023/10/05 12:11:04;;;;;;;;;;;15.40;99.90;;;;;;5119502;28;20277;-74
2023/10/05 12:13:31;;;;;;;;;;;15.40;99.90;;;;;;5117854;28;19982;-73
2023/10/05 12:15:58;;;;;;;;;;;15.40;99.90;;;;;;5118414;28;19987;-73
2023/10/05 12:18:24;;;;;;;;;;;15.30;99.90;;;;;;5118797;28;19919;-74
2023/10/05 12:20:53;;;;;;;;;;;15.40;99.90;;;;;;5117800;28;19958;-74
2023/10/05 12:23:19;;;;;;;;;;;15.40;99.90;;;;;;5119371;28;19957;-73
2023/10/05 12:25:46;;;;;;;;;;;15.40;99.90;;;;;;5112260;28;19927;-73
2023/10/05 12:28:13;;;;;;;;;;;15.30;99.90;;;;;;5112584;28;20114;-74
2023/10/05 12:30:41;;;;;;;;;;;15.40;99.90;;;;;;5116042;28;19923;-74
2023/10/05 12:33:08;;;;;;;;;;;15.40;99.90;;;;;;5108016;28;19927;-74
2023/10/05 12:35:36;;;;;;;;;;;15.40;99.90;;;;;;5113642;28;20118;-74
2023/10/05 12:38:06;;;;;;;;;;;15.40;99.90;;;;;;5112879;28;19990;-73
2023/10/05 12:40:34;;;;;;;;;;;15.30;99.90;;;;;;5116938;28;19923;-73
2023/10/05 12:43:01;;;;;;;;;;;15.30;99.90;;;;;;5118644;28;20116;-73
2023/10/05 12:45:28;;;;;;;;;;;15.30;99.90;;;;;;5116061;28;20253;-74
2023/10/05 12:47:55;;;;;;;;;;;15.30;99.90;;;;;;5117494;28;19931;-73
2023/10/05 12:50:24;;;;;;;;;;;15.30;99.90;;;;;;5117536;28;19920;-73
2023/10/05 12:52:51;;;;;;;;;;;15.40;99.90;;;;;;5117033;28;19978;-73
2023/10/05 12:55:19;;;;;;;;;;;15.40;99.90;;;;;;5118501;28;19961;-74
2023/10/05 12:57:50;;;;;;;;;;;15.30;99.90;;;;;;5115975;28;20281;-74
2023/10/05 13:00:27;;;;;;;;;;;15.40;99.90;;;;;;5119105;27;19987;-73
2023/10/05 13:02:54;;;;;;;;;;;15.40;99.90;;;;;;5115716;28;19920;-73
2023/10/05 13:05:22;;;;;;;;;;;15.30;99.90;;;;;;5117392;28;19987;-73
2023/10/05 13:07:49;;;;;;;;;;;15.30;99.90;;;;;;5115332;28;19920;-73
2023/10/05 13:10:26;;;;;;;;;;;15.20;99.90;;;;;;5112085;28;19944;-74
2023/10/05 13:12:54;;;;;;;;;;;15.10;99.90;;;;;;5104623;28;20256;-73
2023/10/05 13:15:24;;;;;;;;;;;15.10;99.90;;;;;;5111582;28;19920;-73
2023/10/05 13:17:51;;;;;;;;;;;15.00;99.90;;;;;;5114089;28;20145;-73
2023/10/05 13:20:24;;;;;;;;;;;15.00;99.90;;;;;;5111901;28;19955;-74
2023/10/05 13:22:53;;;;;;;;;;;15.00;99.90;;;;;;5114122;28;19919;-74
2023/10/05 13:25:22;;;;;;;;;;;14.90;99.90;;;;;;5111229;28;19959;-74
2023/10/05 13:27:49;;;;;;;;;;;15.00;99.90;;;;;;5113585;28;19961;-74
2023/10/05 13:30:22;;;;;;;;;;;15.00;99.90;;;;;;5111567;28;19958;-74
2023/10/05 13:32:54;;;;;;;;;;;15.00;99.90;;;;;;5115727;28;19921;-73
2023/10/05 13:35:24;;;;;;;;;;;14.90;99.90;;;;;;5117368;28;19919;-74
2023/10/05 13:37:51;;;;;;;;;;;14.90;99.90;;;;;;5116095;28;19955;-73
2023/10/05 13:40:24;;;;;;;;;;;14.90;99.90;;;;;;5118315;28;19919;-74
2023/10/05 13:42:52;;;;;;;;;;;14.80;99.90;;;;;;5113198;28;19969;-73
2023/10/05 13:45:20;;;;;;;;;;;14.90;99.90;;;;;;5110762;28;19959;-74
2023/10/05 13:47:47;;;;;;;;;;;14.90;99.90;;;;;;5113585;28;20209;-73
2023/10/05 13:50:15;;;;;;;;;;;14.90;99.90;;;;;;5111079;28;19966;-73
2023/10/05 13:52:45;;;;;;;;;;;14.90;99.90;;;;;;5114192;28;19924;-75
2023/10/05 13:55:14;;;;;;;;;;;14.90;99.90;;;;;;5111306;28;20106;-73
2023/10/05 13:57:40;;;;;;;;;;;14.90;99.90;;;;;;5114380;28;19920;-74
2023/10/05 14:00:17;;;;;;;;;;;14.80;99.90;;;;;;5117705;28;19920;-74
2023/10/05 14:02:46;;;;;;;;;;;14.80;99.90;;;;;;5110951;28;19920;-73
2023/10/05 14:05:12;;;;;;;;;;;14.80;99.90;;;;;;5110800;28;19927;-73
2023/10/05 14:07:39;;;;;;;;;;;14.80;99.90;;;;;;5115552;28;19920;-73
2023/10/05 14:10:06;;;;;;;;;;;14.80;99.90;;;;;;5117615;28;19975;-73
2023/10/05 14:12:33;;;;;;;;;;;14.80;99.90;;;;;;5115423;28;19983;-73
2023/10/05 14:15:00;;;;;;;;;;;14.90;99.90;;;;;;5116581;28;19920;-73
2023/10/05 14:17:27;;;;;;;;;;;14.90;99.90;;;;;;5116011;28;19955;-74
2023/10/05 14:19:55;;;;;;;;;;;15.00;99.90;;;;;;5112119;28;19920;-74
2023/10/05 14:22:22;;;;;;;;;;;15.00;99.90;;;;;;5114285;28;19920;-74
2023/10/05 14:24:49;;;;;;;;;;;14.90;99.90;;;;;;5110636;28;19989;-73
2023/10/05 14:27:16;;;;;;;;;;;14.90;99.90;;;;;;5116780;28;19920;-74
2023/10/05 14:29:47;;;;;;;;;;;14.90;99.90;;;;;;5113691;28;19926;-74
2023/10/05 14:32:15;;;;;;;;;;;14.80;99.90;;;;;;5110848;28;19920;-73
2023/10/05 14:34:49;;;;;;;;;;;14.80;99.90;;;;;;5113841;28;20140;-75
2023/10/05 14:37:18;;;;;;;;;;;14.80;99.90;;;;;;5109489;28;19987;-74
2023/10/05 14:39:45;;;;;;;;;;;14.80;99.90;;;;;;5100676;28;20223;-74
2023/10/05 14:42:14;;;;;;;;;;;14.70;99.90;;;;;;5103655;28;19920;-74
2023/10/05 14:44:42;;;;;;;;;;;14.80;99.90;;;;;;5103634;28;19920;-74